sensor_id;sensor_type;location;lat;lon;timestamp;P1;durP1;ratioP1;P2;durP2;ratioP2
79241;SDS011;68670;48.720;9.118;2023-11-22T00:01:01;7.35;;;3.10;;
79241;SDS011;68670;48.720;9.118;2023-11-22T00:03:28;7.82;;;2.80;;
79241;SDS011;68670;48.720;9.118;2023-11-22T00:05:53;7.93;;;3.17;;
79241;SDS011;68670;48.720;9.118;2023-11-22T00:08:19;6.80;;;2.80;;
79241;SDS011;68670;48.720;9.118;2023-11-22T00:10:46;6.50;;;2.90;;
79241;SDS011;68670;48.720;9.118;2023-11-22T00:13:14;6.72;;;2.70;;
79241;SDS011;68670;48.720;9.118;2023-11-22T00:15:42;7.00;;;2.85;;
79241;SDS011;68670;48.720;9.118;2023-11-22T00:18:07;8.55;;;3.28;;
79241;SDS011;68670;48.720;9.118;2023-11-22T00:20:37;6.47;;;3.13;;
79241;SDS011;68670;48.720;9.118;2023-11-22T00:23:05;4.88;;;1.90;;
79241;SDS011;68670;48.720;9.118;2023-11-22T00:25:30;2.80;;;1.40;;
79241;SDS011;68670;48.720;9.118;2023-11-22T00:27:55;2.83;;;1.30;;
79241;SDS011;68670;48.720;9.118;2023-11-22T00:30:23;2.30;;;1.20;;
79241;SDS011;68670;48.720;9.118;2023-11-22T00:32:50;3.20;;;1.25;;
79241;SDS011;68670;48.720;9.118;2023-11-22T00:35:16;2.20;;;1.15;;
79241;SDS011;68670;48.720;9.118;2023-11-22T00:37:46;2.70;;;1.25;;
79241;SDS011;68670;48.720;9.118;2023-11-22T00:40:11;3.35;;;1.50;;
79241;SDS011;68670;48.720;9.118;2023-11-22T00:42:37;3.17;;;1.67;;
79241;SDS011;68670;48.720;9.118;2023-11-22T00:45:06;4.30;;;1.65;;
79241;SDS011;68670;48.720;9.118;2023-11-22T00:47:35;6.45;;;1.60;;
79241;SDS011;68670;48.720;9.118;2023-11-22T00:50:01;2.80;;;1.35;;
79241;SDS011;68670;48.720;9.118;2023-11-22T00:52:30;3.42;;;1.65;;
79241;SDS011;68670;48.720;9.118;2023-11-22T00:54:56;4.35;;;1.90;;
79241;SDS011;68670;48.720;9.118;2023-11-22T00:57:21;3.10;;;1.70;;
79241;SDS011;68670;48.720;9.118;2023-11-22T00:59:46;4.65;;;2.40;;
79241;SDS011;68670;48.720;9.118;2023-11-22T01:02:15;4.10;;;2.00;;
79241;SDS011;68670;48.720;9.118;2023-11-22T01:04:41;4.18;;;2.20;;
79241;SDS011;68670;48.720;9.118;2023-11-22T01:07:06;4.03;;;1.97;;
79241;SDS011;68670;48.720;9.118;2023-11-22T01:09:32;4.87;;;2.07;;
79241;SDS011;68670;48.720;9.118;2023-11-22T01:12:00;4.65;;;2.00;;
79241;SDS011;68670;48.720;9.118;2023-11-22T01:14:26;5.85;;;2.25;;
79241;SDS011;68670;48.720;9.118;2023-11-22T01:16:52;4.15;;;2.20;;
79241;SDS011;68670;48.720;9.118;2023-11-22T01:19:17;7.82;;;2.70;;
79241;SDS011;68670;48.720;9.118;2023-11-22T01:21:45;5.35;;;2.47;;
79241;SDS011;68670;48.720;9.118;2023-11-22T01:24:11;5.97;;;2.50;;
79241;SDS011;68670;48.720;9.118;2023-11-22T01:26:36;6.40;;;2.63;;
79241;SDS011;68670;48.720;9.118;2023-11-22T01:29:04;5.63;;;2.53;;
79241;SDS011;68670;48.720;9.118;2023-11-22T01:31:36;4.28;;;2.15;;
79241;SDS011;68670;48.720;9.118;2023-11-22T01:34:02;7.53;;;3.03;;
79241;SDS011;68670;48.720;9.118;2023-11-22T01:36:29;5.30;;;2.40;;
79241;SDS011;68670;48.720;9.118;2023-11-22T01:38:54;5.00;;;2.42;;
79241;SDS011;68670;48.720;9.118;2023-11-22T01:41:20;4.70;;;2.13;;
79241;SDS011;68670;48.720;9.118;2023-11-22T01:43:49;7.18;;;2.33;;
79241;SDS011;68670;48.720;9.118;2023-11-22T01:46:24;5.03;;;2.20;;
79241;SDS011;68670;48.720;9.118;2023-11-22T01:48:51;4.57;;;2.15;;
79241;SDS011;68670;48.720;9.118;2023-11-22T01:51:18;5.03;;;2.28;;
79241;SDS011;68670;48.720;9.118;2023-11-22T01:53:47;5.07;;;1.95;;
79241;SDS011;68670;48.720;9.118;2023-11-22T01:56:15;5.55;;;2.30;;
79241;SDS011;68670;48.720;9.118;2023-11-22T01:58:41;4.43;;;2.17;;
79241;SDS011;68670;48.720;9.118;2023-11-22T02:01:07;4.90;;;2.25;;
79241;SDS011;68670;48.720;9.118;2023-11-22T02:03:34;4.55;;;2.17;;
79241;SDS011;68670;48.720;9.118;2023-11-22T02:05:59;5.70;;;2.20;;
79241;SDS011;68670;48.720;9.118;2023-11-22T02:08:25;5.28;;;2.38;;
79241;SDS011;68670;48.720;9.118;2023-11-22T02:10:57;5.55;;;2.10;;
79241;SDS011;68670;48.720;9.118;2023-11-22T02:13:27;4.55;;;2.30;;
79241;SDS011;68670;48.720;9.118;2023-11-22T02:15:53;4.97;;;2.30;;
79241;SDS011;68670;48.720;9.118;2023-11-22T02:18:23;5.40;;;2.58;;
79241;SDS011;68670;48.720;9.118;2023-11-22T02:20:49;4.50;;;1.90;;
79241;SDS011;68670;48.720;9.118;2023-11-22T02:23:14;5.85;;;2.40;;
79241;SDS011;68670;48.720;9.118;2023-11-22T02:25:40;4.20;;;2.20;;
79241;SDS011;68670;48.720;9.118;2023-11-22T02:28:05;4.17;;;2.10;;
79241;SDS011;68670;48.720;9.118;2023-11-22T02:30:33;4.82;;;2.00;;
79241;SDS011;68670;48.720;9.118;2023-11-22T02:32:58;5.13;;;2.15;;
79241;SDS011;68670;48.720;9.118;2023-11-22T02:35:24;4.30;;;1.95;;
79241;SDS011;68670;48.720;9.118;2023-11-22T02:37:49;4.07;;;2.00;;
79241;SDS011;68670;48.720;9.118;2023-11-22T02:42:45;5.03;;;2.05;;
79241;SDS011;68670;48.720;9.118;2023-11-22T02:45:11;5.70;;;2.25;;
79241;SDS011;68670;48.720;9.118;2023-11-22T02:47:37;3.92;;;1.80;;
79241;SDS011;68670;48.720;9.118;2023-11-22T02:50:05;5.00;;;2.10;;
79241;SDS011;68670;48.720;9.118;2023-11-22T02:52:31;5.00;;;2.13;;
79241;SDS011;68670;48.720;9.118;2023-11-22T02:54:57;5.25;;;2.30;;
79241;SDS011;68670;48.720;9.118;2023-11-22T02:57:24;4.57;;;1.95;;
79241;SDS011;68670;48.720;9.118;2023-11-22T02:59:50;5.82;;;2.30;;
79241;SDS011;68670;48.720;9.118;2023-11-22T03:02:15;4.57;;;1.90;;
79241;SDS011;68670;48.720;9.118;2023-11-22T03:04:43;5.13;;;2.40;;
79241;SDS011;68670;48.720;9.118;2023-11-22T03:07:09;5.53;;;2.00;;
79241;SDS011;68670;48.720;9.118;2023-11-22T03:09:34;4.60;;;1.92;;
79241;SDS011;68670;48.720;9.118;2023-11-22T03:12:00;4.43;;;2.10;;
79241;SDS011;68670;48.720;9.118;2023-11-22T03:14:28;5.07;;;2.13;;
79241;SDS011;68670;48.720;9.118;2023-11-22T03:16:54;5.95;;;2.38;;
79241;SDS011;68670;48.720;9.118;2023-11-22T03:19:22;6.00;;;2.53;;
79241;SDS011;68670;48.720;9.118;2023-11-22T03:21:49;5.03;;;2.28;;
79241;SDS011;68670;48.720;9.118;2023-11-22T03:24:14;4.13;;;2.05;;
79241;SDS011;68670;48.720;9.118;2023-11-22T03:26:40;5.32;;;2.10;;
79241;SDS011;68670;48.720;9.118;2023-11-22T03:29:06;5.45;;;2.25;;
79241;SDS011;68670;48.720;9.118;2023-11-22T03:31:31;5.53;;;2.10;;
79241;SDS011;68670;48.720;9.118;2023-11-22T03:33:59;5.57;;;2.20;;
79241;SDS011;68670;48.720;9.118;2023-11-22T03:36:24;4.75;;;2.28;;
79241;SDS011;68670;48.720;9.118;2023-11-22T03:38:50;5.45;;;2.40;;
79241;SDS011;68670;48.720;9.118;2023-11-22T03:41:16;5.53;;;2.17;;
79241;SDS011;68670;48.720;9.118;2023-11-22T03:43:46;5.03;;;2.10;;
79241;SDS011;68670;48.720;9.118;2023-11-22T03:46:11;5.75;;;2.47;;
79241;SDS011;68670;48.720;9.118;2023-11-22T03:48:37;5.45;;;2.10;;
79241;SDS011;68670;48.720;9.118;2023-11-22T03:51:04;4.72;;;2.28;;
79241;SDS011;68670;48.720;9.118;2023-11-22T03:53:30;6.90;;;2.33;;
79241;SDS011;68670;48.720;9.118;2023-11-22T03:55:57;4.75;;;1.92;;
79241;SDS011;68670;48.720;9.118;2023-11-22T03:58:22;5.00;;;2.25;;
79241;SDS011;68670;48.720;9.118;2023-11-22T04:00:48;4.37;;;1.93;;
79241;SDS011;68670;48.720;9.118;2023-11-22T04:03:13;5.60;;;2.00;;
79241;SDS011;68670;48.720;9.118;2023-11-22T04:05:40;4.45;;;1.90;;
79241;SDS011;68670;48.720;9.118;2023-11-22T04:08:07;4.75;;;2.15;;
79241;SDS011;68670;48.720;9.118;2023-11-22T04:10:33;4.40;;;1.95;;
79241;SDS011;68670;48.720;9.118;2023-11-22T04:13:01;4.90;;;1.98;;
79241;SDS011;68670;48.720;9.118;2023-11-22T04:15:26;5.65;;;2.30;;
79241;SDS011;68670;48.720;9.118;2023-11-22T04:17:51;6.50;;;2.67;;
79241;SDS011;68670;48.720;9.118;2023-11-22T04:20:19;5.18;;;2.50;;
79241;SDS011;68670;48.720;9.118;2023-11-22T04:22:44;4.90;;;2.45;;
79241;SDS011;68670;48.720;9.118;2023-11-22T04:25:12;4.38;;;2.33;;
79241;SDS011;68670;48.720;9.118;2023-11-22T04:27:40;6.13;;;2.42;;
79241;SDS011;68670;48.720;9.118;2023-11-22T04:30:06;7.80;;;2.50;;
79241;SDS011;68670;48.720;9.118;2023-11-22T04:32:33;5.00;;;2.55;;
79241;SDS011;68670;48.720;9.118;2023-11-22T04:35:01;4.65;;;2.13;;
79241;SDS011;68670;48.720;9.118;2023-11-22T04:37:28;5.05;;;2.30;;
79241;SDS011;68670;48.720;9.118;2023-11-22T04:39:56;5.88;;;2.35;;
79241;SDS011;68670;48.720;9.118;2023-11-22T04:42:22;6.90;;;2.85;;
79241;SDS011;68670;48.720;9.118;2023-11-22T04:44:47;4.85;;;2.30;;
79241;SDS011;68670;48.720;9.118;2023-11-22T04:47:13;6.33;;;2.90;;
79241;SDS011;68670;48.720;9.118;2023-11-22T04:49:40;5.75;;;2.65;;
79241;SDS011;68670;48.720;9.118;2023-11-22T04:52:08;5.47;;;2.37;;
79241;SDS011;68670;48.720;9.118;2023-11-22T04:54:33;5.95;;;2.70;;
79241;SDS011;68670;48.720;9.118;2023-11-22T04:57:00;5.22;;;2.53;;
79241;SDS011;68670;48.720;9.118;2023-11-22T04:59:26;6.00;;;2.60;;
79241;SDS011;68670;48.720;9.118;2023-11-22T05:01:51;4.83;;;2.47;;
79241;SDS011;68670;48.720;9.118;2023-11-22T05:04:16;5.28;;;2.55;;
79241;SDS011;68670;48.720;9.118;2023-11-22T05:06:44;10.38;;;2.67;;
79241;SDS011;68670;48.720;9.118;2023-11-22T05:09:11;6.35;;;2.92;;
79241;SDS011;68670;48.720;9.118;2023-11-22T05:11:37;6.70;;;2.78;;
79241;SDS011;68670;48.720;9.118;2023-11-22T05:14:03;4.10;;;2.00;;
79241;SDS011;68670;48.720;9.118;2023-11-22T05:16:28;5.00;;;2.53;;
79241;SDS011;68670;48.720;9.118;2023-11-22T05:18:53;7.53;;;2.53;;
79241;SDS011;68670;48.720;9.118;2023-11-22T05:21:19;5.67;;;2.60;;
79241;SDS011;68670;48.720;9.118;2023-11-22T05:23:44;5.20;;;2.20;;
79241;SDS011;68670;48.720;9.118;2023-11-22T05:26:12;5.57;;;2.75;;
79241;SDS011;68670;48.720;9.118;2023-11-22T05:28:37;5.00;;;2.28;;
79241;SDS011;68670;48.720;9.118;2023-11-22T05:31:02;5.20;;;2.20;;
79241;SDS011;68670;48.720;9.118;2023-11-22T05:33:28;5.28;;;2.58;;
79241;SDS011;68670;48.720;9.118;2023-11-22T05:35:53;5.57;;;2.17;;
79241;SDS011;68670;48.720;9.118;2023-11-22T05:38:19;5.03;;;2.13;;
79241;SDS011;68670;48.720;9.118;2023-11-22T05:40:44;6.32;;;2.40;;
79241;SDS011;68670;48.720;9.118;2023-11-22T05:43:10;9.52;;;2.17;;
79241;SDS011;68670;48.720;9.118;2023-11-22T05:45:35;5.53;;;2.30;;
79241;SDS011;68670;48.720;9.118;2023-11-22T05:48:03;5.13;;;2.33;;
79241;SDS011;68670;48.720;9.118;2023-11-22T05:50:28;4.50;;;2.17;;
79241;SDS011;68670;48.720;9.118;2023-11-22T05:52:54;4.93;;;2.20;;
79241;SDS011;68670;48.720;9.118;2023-11-22T05:55:19;4.70;;;2.15;;
79241;SDS011;68670;48.720;9.118;2023-11-22T05:57:44;7.67;;;2.70;;
79241;SDS011;68670;48.720;9.118;2023-11-22T06:00:10;4.53;;;2.00;;
79241;SDS011;68670;48.720;9.118;2023-11-22T06:02:42;5.05;;;2.15;;
79241;SDS011;68670;48.720;9.118;2023-11-22T06:05:09;4.60;;;2.30;;
79241;SDS011;68670;48.720;9.118;2023-11-22T06:07:34;4.23;;;1.93;;
79241;SDS011;68670;48.720;9.118;2023-11-22T06:10:00;4.85;;;2.13;;
79241;SDS011;68670;48.720;9.118;2023-11-22T06:12:28;5.75;;;2.60;;
79241;SDS011;68670;48.720;9.118;2023-11-22T06:14:58;4.65;;;2.17;;
79241;SDS011;68670;48.720;9.118;2023-11-22T06:17:26;6.47;;;2.50;;
79241;SDS011;68670;48.720;9.118;2023-11-22T06:19:51;4.40;;;2.30;;
79241;SDS011;68670;48.720;9.118;2023-11-22T06:22:16;3.53;;;2.03;;
79241;SDS011;68670;48.720;9.118;2023-11-22T06:24:42;6.25;;;2.47;;
79241;SDS011;68670;48.720;9.118;2023-11-22T06:27:09;6.00;;;2.17;;
79241;SDS011;68670;48.720;9.118;2023-11-22T06:29:37;4.30;;;2.20;;
79241;SDS011;68670;48.720;9.118;2023-11-22T06:32:04;4.85;;;2.03;;
79241;SDS011;68670;48.720;9.118;2023-11-22T06:34:31;4.60;;;2.10;;
79241;SDS011;68670;48.720;9.118;2023-11-22T06:36:56;4.27;;;2.40;;
79241;SDS011;68670;48.720;9.118;2023-11-22T06:39:24;4.88;;;1.98;;
79241;SDS011;68670;48.720;9.118;2023-11-22T06:41:51;7.70;;;2.60;;
79241;SDS011;68670;48.720;9.118;2023-11-22T06:44:17;6.07;;;2.10;;
79241;SDS011;68670;48.720;9.118;2023-11-22T06:46:45;5.00;;;2.30;;
79241;SDS011;68670;48.720;9.118;2023-11-22T06:49:15;3.05;;;1.45;;
79241;SDS011;68670;48.720;9.118;2023-11-22T06:51:40;5.22;;;2.15;;
79241;SDS011;68670;48.720;9.118;2023-11-22T06:54:08;6.45;;;2.38;;
79241;SDS011;68670;48.720;9.118;2023-11-22T06:56:35;5.13;;;2.33;;
79241;SDS011;68670;48.720;9.118;2023-11-22T06:59:01;4.37;;;2.00;;
79241;SDS011;68670;48.720;9.118;2023-11-22T07:01:26;4.47;;;2.05;;
79241;SDS011;68670;48.720;9.118;2023-11-22T07:03:51;6.50;;;2.40;;
79241;SDS011;68670;48.720;9.118;2023-11-22T07:06:17;3.90;;;1.80;;
79241;SDS011;68670;48.720;9.118;2023-11-22T07:08:45;3.85;;;2.00;;
79241;SDS011;68670;48.720;9.118;2023-11-22T07:11:13;5.90;;;2.17;;
79241;SDS011;68670;48.720;9.118;2023-11-22T07:13:48;6.20;;;2.30;;
79241;SDS011;68670;48.720;9.118;2023-11-22T07:16:14;4.10;;;2.13;;
79241;SDS011;68670;48.720;9.118;2023-11-22T07:18:42;4.85;;;2.03;;
79241;SDS011;68670;48.720;9.118;2023-11-22T07:21:07;4.72;;;1.92;;
79241;SDS011;68670;48.720;9.118;2023-11-22T07:23:33;3.40;;;1.48;;
79241;SDS011;68670;48.720;9.118;2023-11-22T07:26:01;3.88;;;1.63;;
79241;SDS011;68670;48.720;9.118;2023-11-22T07:28:26;2.93;;;1.83;;
79241;SDS011;68670;48.720;9.118;2023-11-22T07:30:55;3.95;;;1.60;;
79241;SDS011;68670;48.720;9.118;2023-11-22T07:33:24;4.65;;;1.83;;
79241;SDS011;68670;48.720;9.118;2023-11-22T07:35:51;8.23;;;1.90;;
79241;SDS011;68670;48.720;9.118;2023-11-22T07:38:17;3.27;;;1.40;;
79241;SDS011;68670;48.720;9.118;2023-11-22T07:40:42;4.07;;;1.77;;
79241;SDS011;68670;48.720;9.118;2023-11-22T07:43:07;4.38;;;1.52;;
79241;SDS011;68670;48.720;9.118;2023-11-22T07:45:33;3.60;;;1.70;;
79241;SDS011;68670;48.720;9.118;2023-11-22T07:47:58;3.70;;;1.50;;
79241;SDS011;68670;48.720;9.118;2023-11-22T07:50:27;3.80;;;1.63;;
79241;SDS011;68670;48.720;9.118;2023-11-22T07:52:55;3.10;;;1.45;;
79241;SDS011;68670;48.720;9.118;2023-11-22T07:55:23;3.38;;;1.50;;
79241;SDS011;68670;48.720;9.118;2023-11-22T07:57:51;3.55;;;1.40;;
79241;SDS011;68670;48.720;9.118;2023-11-22T08:00:17;3.22;;;1.48;;
79241;SDS011;68670;48.720;9.118;2023-11-22T08:02:45;3.00;;;1.33;;
79241;SDS011;68670;48.720;9.118;2023-11-22T08:05:11;4.32;;;1.60;;
79241;SDS011;68670;48.720;9.118;2023-11-22T08:07:37;3.15;;;1.40;;
79241;SDS011;68670;48.720;9.118;2023-11-22T08:10:06;3.13;;;1.50;;
79241;SDS011;68670;48.720;9.118;2023-11-22T08:12:35;3.05;;;1.52;;
79241;SDS011;68670;48.720;9.118;2023-11-22T08:15:02;3.70;;;1.70;;
79241;SDS011;68670;48.720;9.118;2023-11-22T08:17:28;5.28;;;1.58;;
79241;SDS011;68670;48.720;9.118;2023-11-22T08:19:54;4.43;;;1.75;;
79241;SDS011;68670;48.720;9.118;2023-11-22T08:22:20;4.18;;;1.88;;
79241;SDS011;68670;48.720;9.118;2023-11-22T08:24:46;4.10;;;1.70;;
79241;SDS011;68670;48.720;9.118;2023-11-22T08:27:11;4.05;;;1.50;;
79241;SDS011;68670;48.720;9.118;2023-11-22T08:29:41;5.93;;;1.63;;
79241;SDS011;68670;48.720;9.118;2023-11-22T08:32:11;4.32;;;1.65;;
79241;SDS011;68670;48.720;9.118;2023-11-22T08:34:36;4.23;;;1.83;;
79241;SDS011;68670;48.720;9.118;2023-11-22T08:37:01;4.80;;;1.60;;
79241;SDS011;68670;48.720;9.118;2023-11-22T08:39:27;3.92;;;1.60;;
79241;SDS011;68670;48.720;9.118;2023-11-22T08:41:52;4.43;;;1.70;;
79241;SDS011;68670;48.720;9.118;2023-11-22T08:44:17;3.93;;;1.63;;
79241;SDS011;68670;48.720;9.118;2023-11-22T08:46:45;4.60;;;1.75;;
79241;SDS011;68670;48.720;9.118;2023-11-22T08:49:14;3.63;;;1.80;;
79241;SDS011;68670;48.720;9.118;2023-11-22T08:51:42;3.85;;;1.73;;
79241;SDS011;68670;48.720;9.118;2023-11-22T08:54:08;6.05;;;1.90;;
79241;SDS011;68670;48.720;9.118;2023-11-22T08:56:33;4.75;;;1.85;;
79241;SDS011;68670;48.720;9.118;2023-11-22T08:59:02;4.80;;;1.67;;
79241;SDS011;68670;48.720;9.118;2023-11-22T09:01:29;3.22;;;1.58;;
79241;SDS011;68670;48.720;9.118;2023-11-22T09:03:54;4.43;;;1.73;;
79241;SDS011;68670;48.720;9.118;2023-11-22T09:06:22;6.28;;;1.80;;
79241;SDS011;68670;48.720;9.118;2023-11-22T09:08:49;4.78;;;1.90;;
79241;SDS011;68670;48.720;9.118;2023-11-22T09:11:14;4.82;;;2.03;;
79241;SDS011;68670;48.720;9.118;2023-11-22T09:13:41;4.88;;;1.80;;
79241;SDS011;68670;48.720;9.118;2023-11-22T09:16:06;5.00;;;2.20;;
79241;SDS011;68670;48.720;9.118;2023-11-22T09:18:36;4.40;;;1.90;;
79241;SDS011;68670;48.720;9.118;2023-11-22T09:21:03;5.15;;;2.30;;
79241;SDS011;68670;48.720;9.118;2023-11-22T09:23:29;4.47;;;1.95;;
79241;SDS011;68670;48.720;9.118;2023-11-22T09:25:57;4.05;;;1.67;;
79241;SDS011;68670;48.720;9.118;2023-11-22T09:28:22;5.45;;;2.15;;
79241;SDS011;68670;48.720;9.118;2023-11-22T09:30:48;5.97;;;2.08;;
79241;SDS011;68670;48.720;9.118;2023-11-22T09:33:16;4.97;;;2.13;;
79241;SDS011;68670;48.720;9.118;2023-11-22T09:35:42;4.30;;;2.00;;
79241;SDS011;68670;48.720;9.118;2023-11-22T09:38:12;5.40;;;2.42;;
79241;SDS011;68670;48.720;9.118;2023-11-22T09:40:41;7.10;;;2.50;;
79241;SDS011;68670;48.720;9.118;2023-11-22T09:43:08;5.60;;;2.30;;
79241;SDS011;68670;48.720;9.118;2023-11-22T09:45:37;5.18;;;2.00;;
79241;SDS011;68670;48.720;9.118;2023-11-22T09:48:04;4.82;;;2.22;;
79241;SDS011;68670;48.720;9.118;2023-11-22T09:50:54;7.25;;;2.13;;
79241;SDS011;68670;48.720;9.118;2023-11-22T09:53:31;5.40;;;2.45;;
79241;SDS011;68670;48.720;9.118;2023-11-22T09:55:58;4.65;;;1.90;;
79241;SDS011;68670;48.720;9.118;2023-11-22T09:58:28;6.05;;;2.38;;
79241;SDS011;68670;48.720;9.118;2023-11-22T10:00:55;6.43;;;2.20;;
79241;SDS011;68670;48.720;9.118;2023-11-22T10:03:20;5.82;;;2.33;;
79241;SDS011;68670;48.720;9.118;2023-11-22T10:05:50;5.97;;;2.10;;
79241;SDS011;68670;48.720;9.118;2023-11-22T10:08:17;5.72;;;2.28;;
79241;SDS011;68670;48.720;9.118;2023-11-22T10:10:43;6.57;;;2.75;;
79241;SDS011;68670;48.720;9.118;2023-11-22T10:13:16;4.28;;;2.15;;
79241;SDS011;68670;48.720;9.118;2023-11-22T10:15:41;4.63;;;2.22;;
79241;SDS011;68670;48.720;9.118;2023-11-22T10:18:06;10.10;;;2.50;;
79241;SDS011;68670;48.720;9.118;2023-11-22T10:20:38;6.55;;;2.90;;
79241;SDS011;68670;48.720;9.118;2023-11-22T10:23:10;5.95;;;2.50;;
79241;SDS011;68670;48.720;9.118;2023-11-22T10:25:46;8.50;;;3.42;;
79241;SDS011;68670;48.720;9.118;2023-11-22T10:28:14;6.95;;;2.65;;
79241;SDS011;68670;48.720;9.118;2023-11-22T10:30:43;6.85;;;2.75;;
79241;SDS011;68670;48.720;9.118;2023-11-22T10:33:12;5.93;;;2.17;;
79241;SDS011;68670;48.720;9.118;2023-11-22T10:35:43;6.95;;;2.55;;
79241;SDS011;68670;48.720;9.118;2023-11-22T10:38:09;8.25;;;2.67;;
79241;SDS011;68670;48.720;9.118;2023-11-22T10:40:35;6.45;;;2.80;;
79241;SDS011;68670;48.720;9.118;2023-11-22T10:43:02;6.82;;;2.63;;
79241;SDS011;68670;48.720;9.118;2023-11-22T10:45:29;7.18;;;2.92;;
79241;SDS011;68670;48.720;9.118;2023-11-22T10:47:57;6.72;;;2.90;;
79241;SDS011;68670;48.720;9.118;2023-11-22T10:50:23;5.68;;;2.80;;
79241;SDS011;68670;48.720;9.118;2023-11-22T10:52:48;5.93;;;2.83;;
79241;SDS011;68670;48.720;9.118;2023-11-22T10:55:20;8.60;;;2.90;;
79241;SDS011;68670;48.720;9.118;2023-11-22T10:57:49;6.65;;;3.03;;
79241;SDS011;68670;48.720;9.118;2023-11-22T11:00:18;8.35;;;2.90;;
79241;SDS011;68670;48.720;9.118;2023-11-22T11:02:47;5.32;;;2.47;;
79241;SDS011;68670;48.720;9.118;2023-11-22T11:05:20;6.22;;;2.80;;
79241;SDS011;68670;48.720;9.118;2023-11-22T11:07:54;6.82;;;2.42;;
79241;SDS011;68670;48.720;9.118;2023-11-22T11:10:26;5.60;;;2.88;;
79241;SDS011;68670;48.720;9.118;2023-11-22T11:12:53;6.68;;;2.67;;
79241;SDS011;68670;48.720;9.118;2023-11-22T11:15:21;6.03;;;2.92;;
79241;SDS011;68670;48.720;9.118;2023-11-22T11:17:49;5.15;;;2.72;;
79241;SDS011;68670;48.720;9.118;2023-11-22T11:20:15;5.72;;;2.85;;
79241;SDS011;68670;48.720;9.118;2023-11-22T11:22:46;6.35;;;3.00;;
79241;SDS011;68670;48.720;9.118;2023-11-22T11:25:14;6.82;;;3.25;;
79241;SDS011;68670;48.720;9.118;2023-11-22T11:27:43;6.15;;;2.88;;
79241;SDS011;68670;48.720;9.118;2023-11-22T11:33:11;6.78;;;2.95;;
79241;SDS011;68670;48.720;9.118;2023-11-22T11:35:38;6.72;;;2.75;;
79241;SDS011;68670;48.720;9.118;2023-11-22T11:38:06;9.30;;;3.17;;
79241;SDS011;68670;48.720;9.118;2023-11-22T11:40:35;7.35;;;3.00;;
79241;SDS011;68670;48.720;9.118;2023-11-22T11:43:01;8.27;;;3.05;;
79241;SDS011;68670;48.720;9.118;2023-11-22T11:45:27;8.27;;;3.00;;
79241;SDS011;68670;48.720;9.118;2023-11-22T11:47:54;6.30;;;3.10;;
79241;SDS011;68670;48.720;9.118;2023-11-22T11:50:21;6.10;;;2.80;;
79241;SDS011;68670;48.720;9.118;2023-11-22T11:52:49;7.47;;;3.10;;
79241;SDS011;68670;48.720;9.118;2023-11-22T11:55:14;5.90;;;2.83;;
79241;SDS011;68670;48.720;9.118;2023-11-22T11:57:41;6.75;;;2.80;;
79241;SDS011;68670;48.720;9.118;2023-11-22T12:00:07;6.63;;;3.05;;
79241;SDS011;68670;48.720;9.118;2023-11-22T12:02:34;5.47;;;2.80;;
79241;SDS011;68670;48.720;9.118;2023-11-22T12:05:00;11.88;;;3.10;;
79241;SDS011;68670;48.720;9.118;2023-11-22T12:07:31;6.03;;;2.70;;
79241;SDS011;68670;48.720;9.118;2023-11-22T12:09:59;8.27;;;2.90;;
79241;SDS011;68670;48.720;9.118;2023-11-22T12:12:27;6.72;;;2.58;;
79241;SDS011;68670;48.720;9.118;2023-11-22T12:14:54;7.20;;;2.97;;
79241;SDS011;68670;48.720;9.118;2023-11-22T12:17:20;5.90;;;2.50;;
79241;SDS011;68670;48.720;9.118;2023-11-22T12:19:46;8.93;;;2.92;;
79241;SDS011;68670;48.720;9.118;2023-11-22T12:22:13;6.07;;;3.00;;
79241;SDS011;68670;48.720;9.118;2023-11-22T12:24:39;5.80;;;2.75;;
79241;SDS011;68670;48.720;9.118;2023-11-22T12:27:09;5.60;;;2.55;;
79241;SDS011;68670;48.720;9.118;2023-11-22T12:29:37;6.45;;;2.70;;
79241;SDS011;68670;48.720;9.118;2023-11-22T12:32:06;7.03;;;3.28;;
79241;SDS011;68670;48.720;9.118;2023-11-22T12:34:32;7.93;;;3.20;;
79241;SDS011;68670;48.720;9.118;2023-11-22T12:36:58;7.13;;;3.03;;
79241;SDS011;68670;48.720;9.118;2023-11-22T12:39:24;5.90;;;2.75;;
79241;SDS011;68670;48.720;9.118;2023-11-22T12:41:52;5.43;;;2.72;;
79241;SDS011;68670;48.720;9.118;2023-11-22T12:44:23;6.30;;;2.72;;
79241;SDS011;68670;48.720;9.118;2023-11-22T12:49:20;8.65;;;2.90;;
79241;SDS011;68670;48.720;9.118;2023-11-22T12:51:49;5.75;;;2.97;;
79241;SDS011;68670;48.720;9.118;2023-11-22T12:54:17;8.18;;;2.70;;
79241;SDS011;68670;48.720;9.118;2023-11-22T12:56:46;8.32;;;3.10;;
79241;SDS011;68670;48.720;9.118;2023-11-22T12:59:15;7.00;;;2.75;;
79241;SDS011;68670;48.720;9.118;2023-11-22T13:01:41;6.28;;;2.85;;
79241;SDS011;68670;48.720;9.118;2023-11-22T13:04:09;7.65;;;3.20;;
79241;SDS011;68670;48.720;9.118;2023-11-22T13:06:37;7.35;;;2.80;;
79241;SDS011;68670;48.720;9.118;2023-11-22T13:09:08;6.55;;;2.95;;
79241;SDS011;68670;48.720;9.118;2023-11-22T13:11:42;7.72;;;2.92;;
79241;SDS011;68670;48.720;9.118;2023-11-22T13:14:08;6.72;;;2.85;;
79241;SDS011;68670;48.720;9.118;2023-11-22T13:16:34;6.43;;;2.75;;
79241;SDS011;68670;48.720;9.118;2023-11-22T13:19:03;5.80;;;2.88;;
79241;SDS011;68670;48.720;9.118;2023-11-22T13:21:29;6.95;;;3.10;;
79241;SDS011;68670;48.720;9.118;2023-11-22T13:23:56;8.40;;;2.88;;
79241;SDS011;68670;48.720;9.118;2023-11-22T13:26:25;6.85;;;2.78;;
79241;SDS011;68670;48.720;9.118;2023-11-22T13:28:51;9.02;;;3.00;;
79241;SDS011;68670;48.720;9.118;2023-11-22T13:31:18;8.07;;;2.92;;
79241;SDS011;68670;48.720;9.118;2023-11-22T13:33:43;6.60;;;2.90;;
79241;SDS011;68670;48.720;9.118;2023-11-22T13:36:12;7.00;;;2.97;;
79241;SDS011;68670;48.720;9.118;2023-11-22T13:38:40;6.10;;;3.15;;
79241;SDS011;68670;48.720;9.118;2023-11-22T13:41:05;7.30;;;2.83;;
79241;SDS011;68670;48.720;9.118;2023-11-22T13:43:31;6.30;;;2.58;;
79241;SDS011;68670;48.720;9.118;2023-11-22T13:45:58;7.55;;;3.03;;
79241;SDS011;68670;48.720;9.118;2023-11-22T13:48:23;6.97;;;2.80;;
79241;SDS011;68670;48.720;9.118;2023-11-22T13:50:49;7.55;;;3.10;;
79241;SDS011;68670;48.720;9.118;2023-11-22T13:53:17;6.70;;;3.05;;
79241;SDS011;68670;48.720;9.118;2023-11-22T13:55:46;9.50;;;2.83;;
79241;SDS011;68670;48.720;9.118;2023-11-22T13:58:12;5.63;;;2.70;;
79241;SDS011;68670;48.720;9.118;2023-11-22T14:00:39;8.48;;;3.28;;
79241;SDS011;68670;48.720;9.118;2023-11-22T14:03:05;8.27;;;3.53;;
79241;SDS011;68670;48.720;9.118;2023-11-22T14:05:35;8.18;;;3.33;;
79241;SDS011;68670;48.720;9.118;2023-11-22T14:08:02;10.98;;;3.10;;
79241;SDS011;68670;48.720;9.118;2023-11-22T14:10:29;6.72;;;2.95;;
79241;SDS011;68670;48.720;9.118;2023-11-22T14:12:54;9.48;;;3.33;;
79241;SDS011;68670;48.720;9.118;2023-11-22T14:15:25;7.88;;;3.22;;
79241;SDS011;68670;48.720;9.118;2023-11-22T14:17:53;10.02;;;3.20;;
79241;SDS011;68670;48.720;9.118;2023-11-22T14:20:18;7.97;;;3.13;;
79241;SDS011;68670;48.720;9.118;2023-11-22T14:22:46;6.30;;;3.10;;
79241;SDS011;68670;48.720;9.118;2023-11-22T14:25:13;6.18;;;2.88;;
79241;SDS011;68670;48.720;9.118;2023-11-22T14:27:40;6.05;;;3.13;;
79241;SDS011;68670;48.720;9.118;2023-11-22T14:30:07;7.07;;;3.60;;
79241;SDS011;68670;48.720;9.118;2023-11-22T14:32:34;10.57;;;3.20;;
79241;SDS011;68670;48.720;9.118;2023-11-22T14:35:00;6.45;;;2.83;;
79241;SDS011;68670;48.720;9.118;2023-11-22T14:37:29;8.13;;;3.03;;
79241;SDS011;68670;48.720;9.118;2023-11-22T14:39:55;5.32;;;2.67;;
79241;SDS011;68670;48.720;9.118;2023-11-22T14:42:26;23.35;;;3.45;;
79241;SDS011;68670;48.720;9.118;2023-11-22T14:47:19;5.33;;;2.30;;
79241;SDS011;68670;48.720;9.118;2023-11-22T14:49:49;6.15;;;2.65;;
79241;SDS011;68670;48.720;9.118;2023-11-22T14:52:17;7.03;;;3.03;;
79241;SDS011;68670;48.720;9.118;2023-11-22T14:54:43;7.57;;;3.28;;
79241;SDS011;68670;48.720;9.118;2023-11-22T14:57:11;6.60;;;3.53;;